Weather observations for the past three days for
Seminole, Gaines County Airport
Metric (Imperial)
Date Time (cdt) Wind (kph) Vis. (km) Weather Sky Cond. Temperature (ºC) Relative Humidity Wind Chill (°C) Heat Index (°C) Pressure Precipitation (cm)
Air Dwpt 6 hour altimeter (cm) sea level (mb) 1 hr 3 hr 6 hr
Max. Min.
04 14:10 Calm 16.09 Fair CLR 36.6 12.7 24% 36 76.25 0.0
04 13:50 Calm 16.09 Fair CLR 36.2 12.9 25% 35 76.28 0.0
04 13:30 Calm 16.09 Fair CLR 35.7 13.7 27% 35 76.28 0.0
04 13:10 Calm 16.09 Fair CLR 35.4 13.7 27% 35 76.3 0.0
04 12:50 Calm 16.09 Fair CLR 34.8 14.2 35 23 29% 34 76.35 0.0
04 12:30 Calm 16.09 Fair CLR 34.5 14.4 30% 34 76.35 0.0
04 12:10 Calm 16.09 Fair CLR 33.7 14.5 31% 33 76.38 0.0
04 11:50 Calm 16.09 Fair CLR 32.9 15 34% 32 76.38 0.0
04 11:30 Calm 16.09 Fair CLR 32.3 15.2 36% 32 76.38 0.0
04 11:10 Calm 16.09 Fair CLR 32 15.5 37% 32 76.38 0.0
04 10:50 Calm 16.09 Fair CLR 31 15.6 39% 31 76.38 0.0
04 10:30 Calm 16.09 Fair CLR 30.2 15.8 42% 30 76.38 0.0
04 10:10 Calm 16.09 Fair CLR 29.8 15.8 43% 30 76.38 0.0
04 09:50 Calm 16.09 Fair CLR 28.6 15.7 46% 29 76.38 0.0
04 09:30 Calm 16.09 Fair CLR 27.8 16 49% 28 76.4 0.0
04 09:10 Calm 16.09 Fair CLR 26.6 16 52% 27 76.38 0.0
04 08:50 Calm 16.09 Fair CLR 25.8 15.7 54% 27 76.35 0.0
04 08:30 Calm 16.09 Fair CLR 25 15.7 56% 26 76.33 0.0
04 08:10 Calm 16.09 Fair CLR 23.7 15.5 60% 76.33 0.0
04 07:50 Calm 16.09 Fair CLR 23.1 15.1 61% 76.28 0.0
04 07:30 Calm 16.09 Fair CLR 23.5 15 59% 76.28 0.0
04 07:10 Calm 16.09 Fair CLR 23.5 14.9 59% 76.28 0.0
04 06:50 Calm 16.09 Fair CLR 22.9 15 25.8 22.6 61% 76.25 0.0
04 06:30 Calm 16.09 Fair CLR 24.5 14.8 55% 26 76.25 0.0
04 06:10 Calm 16.09 Fair CLR 24.6 15.1 56% 26 76.25 0.0
04 05:50 Calm 16.09 Fair CLR 22.6 16 66% 76.25 0.0
04 05:30 Calm 16.09 Fair CLR 23 16.3 66% 76.28 0.0
04 05:10 Calm 16.09 Fair CLR 23.5 16.4 65% 76.28 0.0
04 04:50 Calm 16.09 Fair CLR 24 16.2 62% 25 76.25 0.0
04 04:30 Calm 16.09 Fair CLR 23.5 16.1 63% 76.25 0.0
04 04:10 Calm 16.09 Fair CLR 23.9 16 61% 25 76.25 0.0
04 03:50 Calm 16.09 Fair CLR 24.3 16.2 61% 25 76.23 0.0
04 03:30 Calm 16.09 Fair CLR 24.5 16.3 60% 26 76.23 0.0
04 03:10 Calm 16.09 Fair CLR 24.5 16.3 60% 26 76.23 0.0
04 02:50 Calm 16.09 Fair CLR 24.6 16.6 61% 26 76.23 0.0
04 02:30 Calm 16.09 Fair CLR 25.1 16 57% 26 76.23 0.0
04 02:10 Calm 16.09 Fair CLR 25 14.8 53% 26 76.23 0.0
04 01:50 Calm 16.09 Fair CLR 25 15.1 54% 26 76.23 0.0
04 01:30 Calm 16.09 Fair CLR 25.5 14.5 51% 26 76.23 0.0
04 01:10 Calm 16.09 Fair CLR 25.6 14.3 50% 26 76.23 0.0
04 00:50 Calm 16.09 Fair CLR 26.4 14 33.2 26.2 46% 27 76.23 0.0
04 00:30 Calm 16.09 Partly Cloudy SCT110 26.3 13.6 46% 27 76.23 0.0
04 00:10 Calm 16.09 Mostly Cloudy BKN110 27 13.5 43% 27 76.23 0.0
03 23:50 Calm 16.09 Partly Cloudy SCT110 27.2 13.4 43% 27 76.23 0.0
03 23:30 Calm 16.09 Partly Cloudy SCT110 27.7 13.6 42% 28 76.23 0.0
03 23:10 Calm 16.09 Partly Cloudy SCT120 28.8 13.4 39% 28 76.23 0.0
03 22:50 Calm 16.09 Partly Cloudy SCT120 29.3 13.5 38% 29 76.23 0.0
03 22:30 Calm 16.09 Partly Cloudy SCT120 29.3 13.8 39% 29 76.23 0.0
03 22:10 Calm 16.09 Fair CLR 29.9 13.6 37% 29 76.23 0.0
03 21:50 Calm 16.09 Fair CLR 30 14 38% 29 76.2 0.0
03 21:30 Calm 16.09 Fair CLR 30 14.2 38% 29 76.17 0.0
03 21:10 Calm 16.09 Fair CLR 30.7 13.7 35% 30 76.15 0.0
03 20:50 Calm 16.09 Fair CLR 31 13.5 34% 30 76.12 0.0
03 20:30 S 7 16.09 Fair CLR 31 14.3 36% 30 76.12 0.0
03 20:10 Calm 16.09 Fair CLR 31.9 13.3 32% 31 76.12 0.0
03 19:50 Calm 16.09 Fair CLR 32.6 12.8 30% 32 76.1 0.0
03 19:30 Calm 16.09 Fair CLR 32.3 13.5 32% 31 76.12 0.0
03 19:10 Calm 16.09 Fair CLR 33 12.9 29% 32 76.15 0.0
03 18:50 NW 11 16.09 Mostly Cloudy BKN110 33 13.1 38.1 29.9 30% 32 76.15 0.0
03 18:30 Calm 16.09 Mostly Cloudy BKN110 34 11.9 26% 33 76.15 0.0
03 18:10 SW 17 16.09 Fair CLR 33.9 13.2 28% 33 76.12 0.0
03 17:50 SE 17 16.09 Fair CLR 34.3 13 27% 33 76.1 0.0
03 17:30 SE 20 G 33 16.09 Fair CLR 34.8 11.1 24% 33 76.1 0.0
03 17:10 SE 24 G 31 16.09 Fair CLR 34.8 13.9 28% 34 76.1 0.0
03 16:50 SE 28 G 35 16.09 Fair CLR 34.4 12.6 27% 33 76.1 0.0
03 16:30 E 28 G 37 16.09 Fair CLR 30.8 13.6 35% 30 76.1 0.0
03 16:10 E 35 G 43 16.09 Fair and Breezy CLR 31.6 13.2 33% 31 76.15 0.0
03 15:50 E 30 G 43 16.09 Fair CLR 33.5 13.3 29% 33 76.15 0.0
03 15:30 SW 13 G 31 16.09 Partly Cloudy SCT100 SCT120 34.6 13 27% 34 76.15 0.0
03 15:10 Calm 16.09 Partly Cloudy SCT100 36.2 12.5 24% 35 76.15 0.0
03 14:50 Calm 16.09 Partly Cloudy SCT095 37.2 12.3 22% 36 76.17 0.0
03 14:30 Calm 16.09 Mostly Cloudy BKN095 37.8 12.2 21% 37 76.17 0.0
03 14:10 Calm 16.09 Mostly Cloudy BKN095 37.3 12.6 23% 36 76.17 0.0
03 13:30 Calm 16.09 Fair CLR 36.8 12.3 23% 36 76.25 0.0
03 13:10 Calm 16.09 Fair CLR 36.2 12.6 24% 35 76.28 0.0
03 12:50 Calm 16.09 Fair CLR 36 13.1 36.3 22.9 25% 35 76.3 0.0
03 12:30 Calm 16.09 Partly Cloudy SCT120 35.9 13.7 26% 35 76.33 0.0
03 12:10 Calm 16.09 Mostly Cloudy BKN120 35.2 13.9 28% 34 76.35 0.0
03 11:50 Calm 16.09 Partly Cloudy SCT120 34.6 14.4 30% 34 76.35 0.0
03 11:30 Calm 16.09 Partly Cloudy SCT120 33.4 14.8 33% 33 76.35 0.0
03 11:10 SW 13 16.09 Partly Cloudy SCT120 32.4 14.7 34% 32 76.35 0.0
03 10:50 SW 11 16.09 Partly Cloudy SCT120 30.8 15.4 39% 31 76.35 0.0
03 10:30 SW 13 16.09 Fair CLR 30.2 15.4 41% 30 76.35 0.0
03 10:10 SW 15 16.09 Fair CLR 29.3 15.5 43% 29 76.35 0.0
03 09:50 Calm 16.09 Fair CLR 28.6 15.2 44% 29 76.38 0.0
03 09:30 Calm 16.09 Fair CLR 28.6 15.1 44% 29 76.38 0.0
03 09:10 Calm 16.09 Fair CLR 27.3 14.9 47% 27 76.38 0.0
03 08:50 Calm 16.09 Fair CLR 26 14.9 50% 27 76.35 0.0
03 08:30 Calm 16.09 Fair CLR 24.6 14.7 54% 26 76.35 0.0
03 08:10 Calm 16.09 Fair CLR 23.6 14.5 57% 76.35 0.0
03 07:50 Calm 16.09 Fair CLR 23.2 14.2 57% 76.33 0.0
03 07:30 Calm 16.09 Fair CLR 23 14.2 58% 76.33 0.0
03 07:10 Calm 16.09 Fair CLR 23.3 14 56% 76.33 0.0
03 06:50 Calm 16.09 Fair CLR 23.5 14 27.2 23.4 55% 76.33 0.0
03 06:30 Calm 16.09 Fair CLR 23.4 14 56% 76.28 0.0
03 06:10 Calm 16.09 Fair CLR 23.6 14 55% 76.28 0.0
03 05:50 Calm 16.09 Fair CLR 24.3 13.7 52% 26 76.28 0.0
03 05:30 Calm 16.09 Fair CLR 24.6 13.6 50% 26 76.33 0.0
03 05:10 Calm 16.09 Fair CLR 24.9 13.3 49% 26 76.3 0.0
03 04:50 Calm 16.09 Fair CLR 25 13.2 48% 26 76.33 0.0
03 04:30 Calm 16.09 Fair CLR 25.1 13 47% 26 76.33 0.0
03 04:10 Calm 16.09 Fair CLR 24.7 13 48% 26 76.33 0.0
03 03:50 Calm 16.09 Fair CLR 24.8 12.9 48% 26 76.33 0.0
03 03:30 Calm 16.09 Fair CLR 24.9 12.9 47% 26 76.33 0.0
03 03:10 Calm 16.09 Fair CLR 25.1 13 47% 26 76.33 0.0
03 02:50 Calm 16.09 Fair CLR 25.7 13 45% 26 76.33 0.0
03 02:30 Calm 16.09 Fair CLR 26 13 45% 26 76.33 0.0
03 02:10 Calm 16.09 Fair CLR 26.2 13.1 44% 26 76.33 0.0
03 01:50 Calm 16.09 Fair CLR 26.3 13 44% 27 76.33 0.0
03 01:30 Calm 16.09 Fair CLR 26.5 12.8 43% 27 76.33 0.0
03 01:10 Calm 16.09 Fair CLR 26.8 12.5 41% 27 76.33 0.0
03 00:50 Calm 16.09 Fair CLR 27.3 12.6 35.7 26.4 40% 27 76.33 0.0
03 00:30 Calm 16.09 Fair CLR 27.7 12.2 38% 27 76.33 0.0
03 00:10 Calm 16.09 Fair CLR 27.9 12.2 38% 27 76.33 0.0
02 23:50 Calm 16.09 Fair CLR 27.9 12.9 40% 28 76.33 0.0
02 23:30 Calm 16.09 Fair CLR 28.3 13.7 41% 28 76.33 0.0
02 23:10 SE 7 16.09 Fair CLR 28.6 14.3 42% 28 76.33 0.0
02 22:50 SE 7 16.09 Fair CLR 28.7 14.6 42% 28 76.35 0.0
02 22:30 E 19 16.09 Partly Cloudy SCT100 30 13.6 37% 29 76.33 0.0
02 22:10 E 26 G 35 11.27 Light Rain SCT020 SCT028 BKN060 26.6 15.7 51% 27 76.33 0.0
02 21:50 NW 13 G 33 8.05 Heavy Rain SCT024 BKN043 OVC070 26.9 15.9 51% 27 76.4 0.0
02 21:30 Calm 16.09 Overcast SCT039 SCT055 OVC100 31.5 12.1 30% 30 76.33 0.0
02 21:10 Calm 16.09 Mostly Cloudy BKN100 BKN120 32.1 10.8 27% 31 76.28 0.0
02 20:50 Calm 16.09 Mostly Cloudy BKN110 32.7 10.7 26% 31 76.25 0.0
02 20:30 Calm 16.09 Partly Cloudy SCT110 33.3 11 25% 32 76.23 0.0
02 20:10 Calm 16.09 Mostly Cloudy BKN110 34.2 10.8 24% 33 76.23 0.0
02 19:50 Calm 16.09 Mostly Cloudy BKN110 34.6 11.1 24% 33 76.23 0.0
02 19:30 Calm 16.09 Partly Cloudy SCT110 35.1 11.1 23% 34 76.23 0.0
02 19:10 Calm 16.09 Partly Cloudy SCT110 35.3 11.3 23% 34 76.2 0.0
02 18:50 Calm 16.09 Partly Cloudy SCT110 35.8 11.6 37.3 34.4 23% 34 76.23 0.0
02 18:30 Calm 16.09 Partly Cloudy SCT110 36 11.8 23% 35 76.23 0.0
02 18:10 Calm 16.09 Fair CLR 35.6 11.6 23% 34 76.23 0.0
02 17:50 Calm 16.09 Fair CLR 37 11.9 22% 36 76.23 0.0
02 17:30 Calm 16.09 Fair CLR 36.6 12 23% 35 76.23 0.0
02 17:10 Calm 16.09 Fair CLR 36.9 12.1 22% 36 76.23 0.0
02 16:50 S 15 16.09 Fair CLR 37.2 12.3 22% 36 76.25 0.0
02 16:30 Calm 16.09 Fair CLR 36.3 12.2 23% 35 76.25 0.0
02 16:10 Calm 16.09 Partly Cloudy SCT095 36.6 12.4 23% 35 76.28 0.0
02 15:50 Calm 16.09 Partly Cloudy SCT095 36.8 12.6 23% 36 76.3 0.0
02 15:30 Calm 16.09 Fair CLR 36.1 12.5 24% 35 76.33 0.0
02 15:10 S 11 16.09 Fair CLR 36.2 12.6 24% 35 76.35 0.0
02 14:50 Calm 16.09 Fair CLR 36.1 12.8 24% 35 76.38 0.0
02 14:30 S 17 G 26 16.09 Fair CLR 36.2 13 25% 35 76.4 0.0
02 14:15 Calm 16.09 Fair CLR 35.4 12.7 25% 34 76.4 0.0
02 13:50 Calm 16.09 Partly Cloudy SCT100 35.4 13 26% 34 76.43 0.0
02 13:30 Calm 16.09 Mostly Cloudy BKN100 BKN120 35.2 13.2 26% 34 76.48 0.0
02 13:15 Calm 16.09 Mostly Cloudy BKN100 34.8 13.1 27% 34 76.5 0.0
02 12:50 Calm 16.09 Mostly Cloudy BKN100 34.4 13.4 34.7 22.2 28% 33 76.5 0.0
02 12:30 S 13 16.09 Partly Cloudy SCT110 34 13.4 29% 33 76.53 0.0
02 12:10 S 11 16.09 Partly Cloudy SCT110 33.8 13.7 30% 33 76.56 0.0
02 11:55 S 13 16.09 Partly Cloudy SCT110 33.4 14 31% 33 76.56 0.0
02 11:30 S 15 16.09 Partly Cloudy SCT110 32.7 14.5 33% 32 76.58 0.0
02 11:10 S 15 16.09 Fair CLR 31.9 14.6 35% 31 76.58 0.0
02 10:55 S 15 16.09 Fair CLR 31.3 14.6 36% 31 76.58 0.0
02 10:30 S 15 16.09 Fair CLR 30.1 14.5 39% 30 76.56 0.0
02 10:10 Calm 16.09 Partly Cloudy SCT120 29.1 14.4 41% 29 76.58 0.0
02 09:55 Calm 16.09 Partly Cloudy SCT110 28.9 14.5 41% 29 76.56 0.0
02 09:30 Calm 16.09 Overcast OVC110 26.9 14.2 46% 27 76.56 0.0
02 09:10 Calm 16.09 Mostly Cloudy BKN110 26.1 14.5 49% 27 76.56 0.0
02 08:50 Calm 16.09 Partly Cloudy SCT110 25.5 14.5 51% 26 76.56 0.0
02 08:30 Calm 16.09 Fair CLR 24.2 14.2 54% 25 76.56 0.0
02 08:15 Calm 16.09 Fair CLR 23.4 14.1 56% 76.53 0.0
02 07:50 Calm 16.09 Fair CLR 22.4 13.7 58% 76.5 0.0
02 07:35 Calm 16.09 Fair CLR 22.3 13.6 58% 76.5 0.0
02 07:10 Calm 16.09 Fair CLR 22.4 13.2 56% 76.5 0.0
02 06:50 Calm 16.09 Fair CLR 22.2 13 27.6 22.2 56% 76.5 0.0
02 06:30 Calm 16.09 Fair CLR 22.7 13 54% 76.5 0.0
02 06:10 Calm 16.09 Fair CLR 23 12.8 53% 76.48 0.0
02 05:55 Calm 16.09 Fair CLR 22.8 13 54% 76.5 0.0
02 05:30 Calm 16.09 Fair CLR 22.9 13 54% 76.5 0.0
02 05:15 Calm 16.09 Fair CLR 23 13 53% 76.5 0.0
02 04:50 Calm 16.09 Fair CLR 23.9 12.7 50% 25 76.5 0.0
02 04:30 Calm 16.09 Fair CLR 24.4 12.6 48% 26 76.5 0.0
02 04:15 Calm 16.09 Fair CLR 24.6 12.5 47% 26 76.5 0.0
02 03:55 Calm 16.09 Fair CLR 25 12.5 46% 26 76.5 0.0
02 03:35 Calm 16.09 Fair CLR 24.8 12.6 47% 26 76.5 0.0
02 03:10 Calm 16.09 Fair CLR 25.1 12.7 46% 26 76.5 0.0
02 02:55 Calm 16.09 Fair CLR 25.6 12.6 45% 26 76.5 0.0
02 02:35 Calm 16.09 Fair CLR 26.5 12.5 42% 27 76.5 0.0
02 02:10 Calm 16.09 Fair CLR 26.6 12.5 42% 27 76.53 0.0
02 01:55 Calm 16.09 Partly Cloudy SCT090 SCT110 26.4 12.6 42% 27 76.5 0.0
02 01:35 Calm 16.09 Mostly Cloudy BKN090 BKN110 27.1 12.5 40% 27 76.5 0.0
02 01:10 Calm 16.09 Mostly Cloudy BKN100 BKN110 27.5 12.2 39% 27 76.5 0.0
02 00:50 SE 6 16.09 Mostly Cloudy BKN110 27.5 12.2 34.5 27.1 39% 27 76.5 0.0
02 00:35 SE 9 16.09 Mostly Cloudy BKN100 27.3 12.2 39% 27 76.5 0.0
02 00:15 SE 6 16.09 Partly Cloudy SCT100 27.1 12.2 40% 27 76.48 0.0
01 23:30 SE 7 16.09 Fair CLR 27.5 12.1 38% 27 76.48 0.0
01 23:15 SE 9 16.09 Fair CLR 27.9 12.1 38% 27 76.48 0.0
01 22:50 SE 9 16.09 Fair CLR 28.5 12.1 36% 28 76.48 0.0
01 22:30 SE 9 16.09 Fair CLR 28.7 12.1 36% 28 76.45 0.0
01 22:15 SE 9 16.09 Fair CLR 28.7 12.3 36% 28 76.43 0.0
01 21:55 SE 11 16.09 Fair CLR 29.2 12.3 35% 28 76.4 0.0
01 21:35 SE 13 16.09 Fair CLR 29.8 12.3 34% 29 76.4 0.0
01 21:15 SE 13 16.09 Fair CLR 30.5 12.2 32% 29 76.38 0.0
01 20:55 SE 15 16.09 Fair CLR 30.7 12.5 33% 30 76.35 0.0
01 20:35 SE 15 16.09 Fair CLR 31.5 12.4 31% 30 76.33 0.0
01 20:15 SE 13 16.09 Fair CLR 32.5 12 29% 31 76.3 0.0
01 19:55 SE 13 16.09 Fair CLR 33 12 28% 32 76.3 0.0
01 19:35 SE 15 16.09 Fair CLR 33.5 12.1 27% 32 76.3 0.0
01 19:15 SE 15 16.09 Partly Cloudy SCT090 34.1 12.1 26% 33 76.28 0.0
01 18:55 SE 17 G 28 16.09 Partly Cloudy SCT090 34.5 12.2 36.5 32.9 26% 33 76.3 0.0
01 18:35 S 11 16.09 Fair CLR 35 12.2 25% 34 76.28 0.0
01 18:15 S 15 16.09 Fair CLR 35.3 12.3 25% 34 76.28 0.0
01 17:55 Calm 16.09 Fair CLR 35.5 12.4 25% 34 76.28 0.0
01 17:35 Calm 16.09 Partly Cloudy SCT110 35.4 12.3 25% 34 76.28 0.0
01 17:15 Calm 16.09 Mostly Cloudy BKN090 35.2 12.2 25% 34 76.3 0.0
01 16:50 Calm 16.09 Mostly Cloudy BKN090 35.4 11.9 24% 34 76.3 0.0
01 16:35 Calm 16.09 Partly Cloudy SCT090 35.2 11.9 24% 34 76.3 0.0
01 16:15 Calm 16.09 Partly Cloudy SCT100 SCT120 36 12 23% 35 76.35 0.0
01 15:55 S 13 16.09 Partly Cloudy SCT120 34.6 12 25% 33 76.38 0.0
01 15:35 Calm 16.09 Partly Cloudy SCT110 33.5 12 27% 32 76.4 0.0
01 15:15 Calm 16.09 Partly Cloudy SCT095 34.6 12.4 26% 33 76.4 0.0
01 14:55 Calm 16.09 Partly Cloudy SCT085 33.9 12.6 27% 33 76.43 0.0
01 14:35 Calm 16.09 Partly Cloudy SCT085 34.9 13.3 27% 34 76.45 0.0
Date Time (cdt) Wind (kph) Vis. (km) Weather Sky Cond. Air Dwpt Max. Min. Relative Humidity Wind Chill (°C) Heat Index (°C) altimeter (cm) sea level (mb) 1 hr 3 hr 6 hr
6 hour
Temperature (ºC) Pressure Precipitation (cm)